NOVEMBER 21,2014


METAR SMJP 212300Z 07008KT 9999 SCT010 SCT030 26/24 Q1011 NOSIG=

METAR SMZO 212300Z 05009KT 9999 SCT012 26/24 Q1011 NOSIG=

METAR SMNI 212300Z NIL=

METAR SMST 212300Z NIL=